createdAt,value
2019-06-19T00:01:42.992Z,21.20
2019-06-19T00:04:12.545Z,21.20
2019-06-19T00:06:43.290Z,21.10
2019-06-19T00:09:12.679Z,21.00
2019-06-19T00:11:42.285Z,21.00
2019-06-19T00:14:13.383Z,20.90
2019-06-19T00:16:43.120Z,20.80
2019-06-19T00:19:13.278Z,20.80
2019-06-19T00:21:42.736Z,20.70
2019-06-19T00:24:13.179Z,20.60
2019-06-19T00:26:44.144Z,20.50
2019-06-19T00:29:13.552Z,20.40
2019-06-19T00:31:42.831Z,20.40
2019-06-19T00:34:12.012Z,20.30
2019-06-19T00:36:41.951Z,20.30
2019-06-19T00:39:12.014Z,20.20
2019-06-19T00:41:41.431Z,20.10
2019-06-19T00:44:11.731Z,20.10
2019-06-19T00:46:41.287Z,20.00
2019-06-19T00:49:11.370Z,19.90
2019-06-19T00:51:41.757Z,19.90
2019-06-19T00:54:11.346Z,19.90
2019-06-19T00:56:41.092Z,19.80
2019-06-19T00:59:11.103Z,19.80
2019-06-19T01:01:41.663Z,19.80
2019-06-19T01:04:11.207Z,19.80
2019-06-19T01:06:40.749Z,19.70
2019-06-19T01:09:11.029Z,19.70
2019-06-19T01:11:40.872Z,19.60
2019-06-19T01:14:12.024Z,19.50
2019-06-19T01:16:41.947Z,19.50
2019-06-19T01:19:11.347Z,19.40
2019-06-19T01:21:41.306Z,19.40
2019-06-19T01:24:10.769Z,19.30
2019-06-19T01:26:40.668Z,19.30
2019-06-19T01:29:11.283Z,19.10
2019-06-19T01:31:41.434Z,19.10
2019-06-19T01:34:11.387Z,19.10
2019-06-19T01:36:41.454Z,19.00
2019-06-19T01:39:11.188Z,19.00
2019-06-19T01:41:41.138Z,18.90
2019-06-19T01:44:11.708Z,18.90
2019-06-19T01:46:41.076Z,18.90
2019-06-19T01:49:11.069Z,18.90
2019-06-19T01:51:41.692Z,18.90
2019-06-19T01:54:16.915Z,18.90
2019-06-19T01:56:47.411Z,18.80
2019-06-19T01:59:21.034Z,18.80
2019-06-19T02:01:52.183Z,18.70
2019-06-19T02:04:20.887Z,18.70
2019-06-19T02:06:52.106Z,18.70
2019-06-19T02:09:22.013Z,18.60
2019-06-19T02:11:52.060Z,18.60
2019-06-19T02:14:21.811Z,18.60
2019-06-19T02:16:52.165Z,18.50
2019-06-19T02:19:24.885Z,18.50
2019-06-19T02:21:53.232Z,18.50
2019-06-19T02:24:22.461Z,18.50
2019-06-19T02:26:52.085Z,18.40
2019-06-19T02:29:21.381Z,18.40
2019-06-19T02:31:53.082Z,18.30
2019-06-19T02:34:22.321Z,18.30
2019-06-19T02:36:51.977Z,18.40
2019-06-19T02:39:22.071Z,18.30
2019-06-19T02:41:51.647Z,18.30
2019-06-19T02:44:20.921Z,18.30
2019-06-19T02:46:50.336Z,18.30
2019-06-19T02:49:19.525Z,18.30
2019-06-19T02:51:49.020Z,18.30
2019-06-19T02:54:18.276Z,18.30
2019-06-19T02:56:47.629Z,18.30
2019-06-19T02:59:16.880Z,18.30
2019-06-19T03:01:46.079Z,18.30
2019-06-19T03:04:15.818Z,18.30
2019-06-19T03:06:45.502Z,18.20
2019-06-19T03:09:14.695Z,18.20
2019-06-19T03:11:43.994Z,18.20
2019-06-19T03:14:13.219Z,18.20
2019-06-19T03:16:42.425Z,18.20
2019-06-19T03:19:11.618Z,18.20
2019-06-19T03:21:40.899Z,18.20
2019-06-19T03:24:10.095Z,18.20
2019-06-19T03:26:39.295Z,18.20
2019-06-19T03:29:08.495Z,18.20
2019-06-19T03:31:37.700Z,18.20
2019-06-19T03:34:07.168Z,18.20
2019-06-19T03:36:36.523Z,18.20
2019-06-19T03:39:05.889Z,18.20
2019-06-19T03:41:35.107Z,18.20
2019-06-19T03:44:04.350Z,18.30
2019-06-19T03:46:33.719Z,18.30
2019-06-19T03:49:02.977Z,18.40
2019-06-19T03:51:32.160Z,18.70
2019-06-19T03:54:01.457Z,20.00
2019-06-19T03:56:30.655Z,21.40
2019-06-19T03:59:00.020Z,22.70
2019-06-19T04:01:29.453Z,23.90
2019-06-19T04:03:58.688Z,25.00
2019-06-19T04:06:27.930Z,25.90
2019-06-19T04:08:57.132Z,26.80
2019-06-19T04:11:26.335Z,27.60
2019-06-19T04:13:55.537Z,28.40
2019-06-19T04:16:24.722Z,29.20
2019-06-19T04:18:53.943Z,30.00
2019-06-19T04:21:23.110Z,30.70
2019-06-19T04:23:52.313Z,31.30
2019-06-19T04:26:21.564Z,31.90
2019-06-19T04:28:50.972Z,32.40
2019-06-19T04:31:20.192Z,33.20
2019-06-19T04:33:49.481Z,33.80
2019-06-19T04:36:18.726Z,34.40
2019-06-19T04:38:48.263Z,34.70
2019-06-19T04:41:17.519Z,35.30
2019-06-19T04:43:46.739Z,36.00
2019-06-19T04:46:16.019Z,36.60
2019-06-19T04:48:45.679Z,37.30
2019-06-19T04:51:14.855Z,37.90
2019-06-19T04:53:44.315Z,38.70
2019-06-19T04:56:13.737Z,39.00
2019-06-19T04:58:43.063Z,39.60
2019-06-19T05:01:12.412Z,40.30
2019-06-19T05:03:41.696Z,40.80
2019-06-19T05:06:12.135Z,41.30
2019-06-19T05:08:48.224Z,41.70
2019-06-19T05:11:17.956Z,42.20
2019-06-19T05:13:47.128Z,42.40
2019-06-19T05:16:16.771Z,43.10
2019-06-19T05:18:46.013Z,43.80
2019-06-19T05:21:15.960Z,44.60
2019-06-19T05:23:45.160Z,45.20
2019-06-19T05:26:14.736Z,45.60
2019-06-19T05:28:43.920Z,46.10
2019-06-19T05:31:13.115Z,45.50
2019-06-19T05:33:42.367Z,45.90
2019-06-19T05:36:11.612Z,46.00
2019-06-19T05:38:40.864Z,46.20
2019-06-19T05:41:10.084Z,46.50
2019-06-19T05:43:39.444Z,46.50
2019-06-19T05:46:08.678Z,46.60
2019-06-19T05:48:37.865Z,46.40
2019-06-19T05:51:07.661Z,45.90
2019-06-19T05:53:37.127Z,46.20
2019-06-19T05:56:06.404Z,45.40
2019-06-19T05:58:36.409Z,45.90
2019-06-19T06:01:05.681Z,46.00
2019-06-19T06:03:35.007Z,45.80
2019-06-19T06:06:04.770Z,45.40
2019-06-19T06:08:34.020Z,45.80
2019-06-19T06:11:03.233Z,45.70
2019-06-19T06:13:32.399Z,45.60
2019-06-19T06:16:01.590Z,45.50
2019-06-19T06:18:30.799Z,45.50
2019-06-19T06:21:00.009Z,45.20
2019-06-19T06:23:29.297Z,45.10
2019-06-19T06:25:58.528Z,45.20
2019-06-19T06:28:27.723Z,45.00
2019-06-19T06:30:56.995Z,45.30
2019-06-19T06:33:26.230Z,45.10
2019-06-19T06:35:55.448Z,44.90
2019-06-19T06:38:24.707Z,44.70
2019-06-19T06:40:54.011Z,44.70
2019-06-19T06:43:23.227Z,44.80
2019-06-19T06:45:52.472Z,45.30
2019-06-19T06:48:21.757Z,45.40
2019-06-19T06:50:50.953Z,45.10
2019-06-19T06:53:20.306Z,44.50
2019-06-19T06:55:49.573Z,44.40
2019-06-19T06:58:22.032Z,41.70
2019-06-19T07:00:59.399Z,38.20
2019-06-19T07:03:29.043Z,35.80
2019-06-19T12:16:11.459Z,32.50
2019-06-19T12:18:40.705Z,32.60
2019-06-19T12:21:09.959Z,32.60
2019-06-19T12:23:39.163Z,32.60
2019-06-19T12:26:08.344Z,32.60
2019-06-19T13:48:06.440Z,31.70
2019-06-19T13:50:35.883Z,31.80
2019-06-19T13:53:05.897Z,31.80
2019-06-19T13:55:35.114Z,31.80
2019-06-19T13:58:04.500Z,32.00
2019-06-19T14:00:33.667Z,32.20
2019-06-19T14:03:03.368Z,32.40
2019-06-19T14:05:32.668Z,32.30
2019-06-19T14:08:01.975Z,32.20
2019-06-19T17:14:15.221Z,19.60
2019-06-19T17:16:44.613Z,19.40
2019-06-19T17:19:13.845Z,19.80
2019-06-19T17:21:51.278Z,20.00
2019-06-19T17:24:14.065Z,20.20
2019-06-19T17:26:43.449Z,20.30
2019-06-19T17:29:12.761Z,20.50
2019-06-19T17:31:42.080Z,20.70
2019-06-19T17:34:11.322Z,20.60
2019-06-19T17:36:40.588Z,20.30
2019-06-19T17:39:21.372Z,20.20
2019-06-19T17:41:40.743Z,20.00
2019-06-19T17:44:10.049Z,19.90
2019-06-19T17:46:39.223Z,19.70
2019-06-19T17:49:08.424Z,19.60
2019-06-19T17:51:37.852Z,19.60
2019-06-19T17:54:07.065Z,19.60
2019-06-19T17:56:36.582Z,19.40
2019-06-19T17:59:05.929Z,19.50
2019-06-19T18:01:35.131Z,19.70
2019-06-19T18:04:04.487Z,19.90
2019-06-19T18:06:35.571Z,20.10
2019-06-19T18:09:06.932Z,20.10
2019-06-19T18:11:36.221Z,20.10
2019-06-19T18:14:05.758Z,20.10
2019-06-19T18:16:36.931Z,20.00
2019-06-19T18:19:06.003Z,20.00
2019-06-19T18:21:35.297Z,20.10
2019-06-19T18:24:04.689Z,20.10
2019-06-19T18:26:33.953Z,20.00
2019-06-19T18:29:03.212Z,19.90
2019-06-19T18:31:32.539Z,19.90
2019-06-19T18:34:01.890Z,19.80
2019-06-19T18:36:31.241Z,19.80
2019-06-19T18:39:00.679Z,19.80
2019-06-19T18:41:30.457Z,19.80
2019-06-19T18:43:59.655Z,19.80
2019-06-19T18:46:28.920Z,19.80
2019-06-19T18:48:59.021Z,19.80
2019-06-19T18:51:28.483Z,19.80
2019-06-19T18:53:58.024Z,19.80
2019-06-19T18:56:27.392Z,19.80
2019-06-19T18:58:56.695Z,19.90
2019-06-19T19:01:28.041Z,19.90
2019-06-19T19:03:56.960Z,19.90
2019-06-19T19:06:26.217Z,19.90
2019-06-19T19:08:55.408Z,20.00
2019-06-19T19:11:24.892Z,20.10
2019-06-19T19:13:54.053Z,20.10
2019-06-19T19:16:23.736Z,20.10
2019-06-19T19:18:52.989Z,20.10
2019-06-19T19:24:51.594Z,19.90
2019-06-19T19:27:20.916Z,19.80
2019-06-19T19:29:50.343Z,19.80
2019-06-19T19:32:19.839Z,19.70
2019-06-19T19:34:49.153Z,19.80
2019-06-19T19:37:18.458Z,19.80
2019-06-19T19:39:47.675Z,19.80
2019-06-19T19:42:17.020Z,19.80
2019-06-19T19:44:46.398Z,19.90
2019-06-19T19:47:15.599Z,19.90
2019-06-19T19:49:44.900Z,19.80
2019-06-19T19:52:14.155Z,19.70
2019-06-19T19:54:43.476Z,19.60
2019-06-19T19:57:14.328Z,19.50
2019-06-19T19:59:57.657Z,19.20
2019-06-19T20:02:14.500Z,19.40
2019-06-19T20:04:44.436Z,19.40
2019-06-19T20:07:13.721Z,19.30
2019-06-19T20:09:43.081Z,19.20
2019-06-19T20:12:12.390Z,19.20
2019-06-19T20:14:41.763Z,19.20
2019-06-19T20:17:10.948Z,19.10
2019-06-19T20:19:40.162Z,19.10
2019-06-19T20:22:09.405Z,19.00
2019-06-19T20:24:38.686Z,19.00
2019-06-19T20:27:07.906Z,18.90
2019-06-19T20:29:37.187Z,18.90
2019-06-19T20:32:06.513Z,18.90
2019-06-19T20:34:35.798Z,18.90
2019-06-19T20:37:05.068Z,18.90
2019-06-19T20:39:34.340Z,18.80
2019-06-19T20:42:03.732Z,18.80
2019-06-19T20:44:32.945Z,18.70
2019-06-19T20:47:02.164Z,18.70
2019-06-19T20:49:31.517Z,18.70
2019-06-19T20:52:00.710Z,18.60
2019-06-19T20:54:29.904Z,18.70
2019-06-19T20:56:59.143Z,18.70
2019-06-19T20:59:35.326Z,18.70
2019-06-19T21:01:59.324Z,18.60
2019-06-19T21:04:28.562Z,18.60
2019-06-19T21:06:57.848Z,18.50
2019-06-19T21:09:29.083Z,18.50
2019-06-19T21:11:58.541Z,18.40
2019-06-19T21:14:28.780Z,18.40
2019-06-19T21:16:58.234Z,18.40
2019-06-19T21:19:27.469Z,18.40
2019-06-19T21:21:56.842Z,18.40
2019-06-19T21:24:26.031Z,18.40
2019-06-19T21:26:55.924Z,18.50
2019-06-19T21:29:25.186Z,18.60
2019-06-19T21:31:57.984Z,18.60
2019-06-19T21:34:25.545Z,18.70
2019-06-19T21:36:54.776Z,18.70
2019-06-19T21:39:23.971Z,18.80
2019-06-19T21:41:53.219Z,18.30
2019-06-19T21:44:22.492Z,18.90
2019-06-19T21:46:51.675Z,19.00
2019-06-19T21:49:20.882Z,19.00
2019-06-19T21:51:50.112Z,19.00
2019-06-19T21:54:19.534Z,19.00
2019-06-19T21:56:48.817Z,18.90
2019-06-19T21:59:18.019Z,18.60
2019-06-19T22:01:47.450Z,18.90
2019-06-19T22:04:16.696Z,18.80
2019-06-19T22:06:45.972Z,18.50
2019-06-19T22:11:53.766Z,18.90
2019-06-19T22:19:13.886Z,18.70
2019-06-19T22:41:49.108Z,18.70
2019-06-19T22:49:17.884Z,18.60
2019-06-19T22:54:17.809Z,18.90
2019-06-19T22:56:49.126Z,19.00
2019-06-19T22:59:18.363Z,19.20
2019-06-19T23:01:47.612Z,19.10
2019-06-19T23:06:46.021Z,19.10
2019-06-19T23:09:15.585Z,19.10
2019-06-19T23:21:44.724Z,19.50
2019-06-19T23:44:10.899Z,18.30
2019-06-19T23:46:40.141Z,18.70
